createdAt,value
2022-08-05T00:01:36.454Z,32.10
2022-08-05T00:04:17.514Z,32.00
2022-08-05T00:06:45.262Z,32.00
2022-08-05T00:09:15.915Z,31.90
2022-08-05T00:11:49.458Z,31.80
2022-08-05T00:14:27.837Z,31.60
2022-08-05T00:16:57.497Z,31.50
2022-08-05T00:19:32.948Z,31.30
2022-08-05T00:22:02.804Z,31.20
2022-08-05T00:24:31.759Z,31.10
2022-08-05T00:27:00.511Z,30.90
2022-08-05T00:29:37.771Z,30.90
2022-08-05T00:32:13.245Z,30.80
2022-08-05T00:35:04.986Z,30.70
2022-08-05T00:37:50.670Z,30.60
2022-08-05T00:40:27.100Z,30.60
2022-08-05T00:43:00.989Z,30.60
2022-08-05T00:45:43.115Z,30.50
2022-08-05T00:48:16.382Z,30.50
2022-08-05T00:50:46.625Z,30.50
2022-08-05T00:54:00.921Z,30.40
2022-08-05T00:56:05.535Z,30.30
2022-08-05T00:58:37.850Z,30.30
2022-08-05T01:01:08.822Z,30.30
2022-08-05T01:03:39.946Z,30.20
2022-08-05T01:06:13.967Z,30.20
2022-08-05T01:08:44.650Z,30.20
2022-08-05T01:11:14.441Z,30.20
2022-08-05T01:14:31.290Z,30.10
2022-08-05T01:17:26.746Z,30.10
2022-08-05T01:20:20.470Z,30.10
2022-08-05T01:23:22.805Z,30.10
2022-08-05T01:26:13.153Z,30.10
2022-08-05T01:28:57.771Z,30.10
2022-08-05T01:31:42.581Z,30.30
2022-08-05T01:34:15.262Z,30.20
2022-08-05T01:36:50.903Z,30.30
2022-08-05T01:39:46.903Z,30.20
2022-08-05T01:42:10.182Z,30.30
2022-08-05T01:44:42.113Z,30.30
2022-08-05T01:47:11.601Z,30.40
2022-08-05T01:50:01.628Z,30.80
2022-08-05T01:52:50.328Z,30.40
2022-08-05T01:55:20.888Z,30.50
2022-08-05T01:58:29.854Z,30.50
2022-08-05T02:00:42.186Z,30.40
2022-08-05T02:03:31.531Z,30.40
2022-08-05T02:06:03.645Z,30.40
2022-08-05T02:08:58.477Z,30.40
2022-08-05T02:11:37.517Z,30.30
2022-08-05T02:14:14.981Z,30.30
2022-08-05T02:16:44.319Z,30.20
2022-08-05T02:19:25.302Z,30.10
2022-08-05T02:22:34.059Z,30.00
2022-08-05T02:25:25.702Z,29.90
2022-08-05T02:27:59.036Z,29.80
2022-08-05T02:30:35.390Z,29.70
2022-08-05T02:33:03.907Z,29.70
2022-08-05T02:35:38.585Z,29.70
2022-08-05T02:38:19.837Z,29.60
2022-08-05T02:40:47.614Z,30.10
2022-08-05T02:43:16.666Z,29.60
2022-08-05T02:45:52.658Z,29.60
2022-08-05T02:48:29.120Z,29.50
2022-08-05T02:51:00.282Z,29.50
2022-08-05T02:53:39.191Z,29.50
2022-08-05T02:56:15.796Z,29.40
2022-08-05T02:58:51.439Z,29.40
2022-08-05T03:01:23.189Z,29.40
2022-08-05T03:04:03.449Z,29.30
2022-08-05T03:06:56.161Z,29.20
2022-08-05T03:09:37.468Z,29.20
2022-08-05T03:12:07.001Z,29.20
2022-08-05T03:14:45.863Z,29.10
2022-08-05T03:17:13.649Z,29.10
2022-08-05T03:19:41.849Z,29.00
2022-08-05T03:22:16.225Z,28.90
2022-08-05T03:24:46.951Z,29.60
2022-08-05T03:27:15.856Z,28.80
2022-08-05T03:29:44.819Z,28.80
2022-08-05T03:32:31.425Z,28.80
2022-08-05T03:34:59.555Z,28.70
2022-08-05T03:37:30.523Z,28.70
2022-08-05T03:40:12.079Z,28.70
2022-08-05T03:42:51.937Z,28.70
2022-08-05T03:45:21.869Z,28.70
2022-08-05T03:47:51.399Z,28.50
2022-08-05T03:50:19.415Z,28.40
2022-08-05T03:55:34.713Z,28.40
2022-08-05T03:56:11.851Z,28.30
2022-08-05T03:58:48.571Z,28.60
2022-08-05T04:01:21.148Z,28.20
2022-08-05T04:04:05.446Z,28.80
2022-08-05T04:06:38.494Z,28.10
2022-08-05T04:09:25.967Z,28.40
2022-08-05T04:11:56.591Z,28.60
2022-08-05T04:14:30.008Z,28.50
2022-08-05T04:17:00.129Z,28.00
2022-08-05T04:19:28.672Z,28.00
2022-08-05T04:22:10.196Z,28.00
2022-08-05T04:24:44.473Z,28.50
2022-08-05T04:27:41.681Z,27.90
2022-08-05T04:30:08.886Z,27.90
2022-08-05T04:32:36.572Z,27.80
2022-08-05T04:35:05.990Z,27.80
2022-08-05T04:38:02.054Z,27.80
2022-08-05T04:40:20.855Z,27.70
2022-08-05T04:42:48.531Z,27.70
2022-08-05T04:45:22.973Z,27.70
2022-08-05T04:48:18.618Z,27.60
2022-08-05T04:51:02.847Z,27.60
2022-08-05T04:53:38.875Z,27.60
2022-08-05T04:56:33.723Z,27.60
2022-08-05T04:58:55.532Z,27.60
2022-08-05T05:01:33.455Z,27.60
2022-08-05T05:04:11.443Z,27.60
2022-08-05T05:06:49.132Z,27.20
2022-08-05T05:09:19.173Z,27.60
2022-08-05T05:11:54.025Z,27.60
2022-08-05T05:14:31.378Z,27.60
2022-08-05T05:17:00.442Z,27.80
2022-08-05T05:19:36.477Z,27.60
2022-08-05T05:22:23.841Z,27.60
2022-08-05T05:25:00.178Z,27.60
2022-08-05T05:27:44.479Z,28.10
2022-08-05T05:30:30.791Z,27.60
2022-08-05T05:33:03.786Z,27.60
2022-08-05T05:35:46.564Z,27.60
2022-08-05T05:38:14.383Z,27.60
2022-08-05T05:40:49.722Z,28.20
2022-08-05T05:43:22.315Z,28.20
2022-08-05T05:46:13.770Z,27.60
2022-08-05T05:48:44.518Z,27.60
2022-08-05T05:51:15.738Z,27.60
2022-08-05T05:53:54.650Z,27.60
2022-08-05T05:56:46.150Z,27.70
2022-08-05T05:59:14.798Z,27.80
2022-08-05T06:01:57.308Z,27.90
2022-08-05T06:04:25.663Z,27.70
2022-08-05T06:06:53.022Z,28.20
2022-08-05T06:09:26.616Z,27.80
2022-08-05T06:12:09.542Z,27.90
2022-08-05T06:14:37.184Z,27.90
2022-08-05T06:17:22.129Z,27.90
2022-08-05T06:19:56.723Z,28.00
2022-08-05T06:22:33.380Z,28.50
2022-08-05T06:25:24.626Z,27.90
2022-08-05T06:28:10.545Z,28.00
2022-08-05T06:30:40.296Z,28.00
2022-08-05T06:33:09.754Z,28.00
2022-08-05T06:36:06.972Z,28.20
2022-08-05T06:38:36.596Z,28.20
2022-08-05T06:41:07.926Z,28.30
2022-08-05T06:43:57.781Z,28.40
2022-08-05T06:46:30.371Z,28.50
2022-08-05T06:48:59.652Z,28.60
2022-08-05T06:51:29.271Z,28.60
2022-08-05T06:54:02.419Z,28.60
2022-08-05T06:56:34.477Z,28.70
2022-08-05T06:59:09.639Z,28.80
2022-08-05T07:01:40.813Z,28.80
2022-08-05T07:04:10.658Z,28.80
2022-08-05T07:06:41.381Z,28.80
2022-08-05T07:09:08.713Z,29.00
2022-08-05T07:11:39.645Z,28.80
2022-08-05T07:14:29.224Z,28.80
2022-08-05T07:18:02.351Z,29.20
2022-08-05T07:22:38.784Z,28.90
2022-08-05T07:25:22.717Z,29.10
2022-08-05T07:28:29.974Z,28.90
2022-08-05T07:30:57.418Z,29.00
2022-08-05T07:33:35.189Z,29.10
2022-08-05T07:36:21.560Z,29.10
2022-08-05T07:38:49.329Z,29.10
2022-08-05T07:42:13.712Z,29.10
2022-08-05T07:44:27.545Z,29.10
2022-08-05T07:46:56.326Z,29.00
2022-08-05T07:49:24.298Z,29.10
2022-08-05T07:51:54.217Z,29.00
2022-08-05T07:54:31.251Z,29.00
2022-08-05T07:57:13.676Z,29.00
2022-08-05T07:59:49.891Z,29.00
2022-08-05T08:03:14.850Z,29.70
2022-08-05T08:05:23.588Z,29.30
2022-08-05T08:08:00.116Z,29.20
2022-08-05T08:10:28.803Z,29.20
2022-08-05T08:12:58.562Z,29.10
2022-08-05T08:15:37.245Z,29.10
2022-08-05T08:18:14.341Z,29.20
2022-08-05T08:21:02.320Z,29.90
2022-08-05T08:24:01.104Z,29.30
2022-08-05T08:26:17.397Z,29.20
2022-08-05T08:28:58.976Z,29.20
2022-08-05T08:31:27.131Z,29.30
2022-08-05T08:33:54.558Z,29.60
2022-08-05T08:36:37.585Z,29.30
2022-08-05T08:39:14.979Z,29.30
2022-08-05T08:41:50.775Z,29.30
2022-08-05T08:45:18.291Z,29.30
2022-08-05T08:48:05.860Z,29.40
2022-08-05T08:50:30.397Z,29.40
2022-08-05T08:53:11.982Z,29.60
2022-08-05T08:56:03.041Z,29.60
2022-08-05T08:58:43.389Z,29.70
2022-08-05T09:01:17.462Z,29.80
2022-08-05T09:03:52.861Z,29.90
2022-08-05T09:06:29.521Z,30.10
2022-08-05T09:09:02.493Z,30.60
2022-08-05T09:11:51.758Z,30.20
2022-08-05T09:14:58.978Z,30.60
2022-08-05T09:17:09.698Z,30.80
2022-08-05T09:20:01.982Z,30.60
2022-08-05T09:23:09.366Z,30.60
2022-08-05T09:26:02.880Z,30.60
2022-08-05T09:28:32.112Z,30.70
2022-08-05T09:31:44.251Z,30.80
2022-08-05T09:34:01.554Z,30.80
2022-08-05T09:36:54.743Z,30.80
2022-08-05T09:39:41.550Z,30.80
2022-08-05T09:42:22.977Z,30.80
2022-08-05T09:44:56.413Z,30.80
2022-08-05T09:47:34.914Z,30.80
2022-08-05T09:50:17.909Z,31.00
2022-08-05T09:52:59.938Z,30.80
2022-08-05T09:55:56.545Z,30.80
2022-08-05T09:58:24.338Z,30.80
2022-08-05T10:00:53.346Z,30.80
2022-08-05T10:03:22.567Z,30.80
2022-08-05T10:06:15.443Z,30.80
2022-08-05T10:08:43.358Z,30.90
2022-08-05T10:11:21.523Z,31.10
2022-08-05T10:13:54.799Z,31.50
2022-08-05T10:16:37.830Z,30.90
2022-08-05T10:19:11.785Z,30.90
2022-08-05T10:21:40.193Z,31.00
2022-08-05T10:24:12.886Z,31.00
2022-08-05T10:26:51.257Z,31.00
2022-08-05T10:29:24.072Z,31.00
2022-08-05T10:33:00.862Z,31.00
2022-08-05T10:35:00.637Z,31.10
2022-08-05T10:37:44.444Z,31.10
2022-08-05T10:40:19.566Z,31.00
2022-08-05T10:42:52.393Z,31.10
2022-08-05T10:45:40.509Z,31.40
2022-08-05T10:48:38.387Z,31.10
2022-08-05T10:51:23.211Z,31.20
2022-08-05T10:54:02.089Z,31.40
2022-08-05T10:56:52.866Z,31.80
2022-08-05T11:00:04.325Z,31.30
2022-08-05T11:02:34.795Z,31.30
2022-08-05T11:05:10.225Z,31.40
2022-08-05T11:08:02.546Z,31.40
2022-08-05T11:10:37.100Z,31.40
2022-08-05T11:13:06.742Z,31.40
2022-08-05T11:16:01.048Z,31.40
2022-08-05T11:18:34.112Z,31.50
2022-08-05T11:21:02.905Z,31.50
2022-08-05T11:24:04.326Z,31.50
2022-08-05T11:26:32.909Z,31.60
2022-08-05T11:29:12.360Z,32.30
2022-08-05T11:31:58.023Z,31.70
2022-08-05T11:34:55.276Z,31.70
2022-08-05T11:38:37.399Z,32.20
2022-08-05T11:41:03.627Z,32.30
2022-08-05T11:44:08.303Z,31.70
2022-08-05T11:46:37.687Z,31.70
2022-08-05T11:49:07.920Z,31.80
2022-08-05T11:51:44.756Z,31.90
2022-08-05T11:54:34.381Z,31.90
2022-08-05T11:57:08.644Z,31.90
2022-08-05T11:59:52.053Z,32.00
2022-08-05T12:02:31.766Z,32.50
2022-08-05T12:05:32.242Z,32.10
2022-08-05T12:08:10.078Z,32.20
2022-08-05T12:10:45.598Z,32.20
2022-08-05T12:13:18.810Z,32.30
2022-08-05T12:16:03.633Z,32.30
2022-08-05T12:18:42.666Z,32.30
2022-08-05T12:21:23.739Z,32.40
2022-08-05T12:23:54.727Z,32.40
2022-08-05T12:26:23.245Z,32.40
2022-08-05T12:28:51.454Z,32.50
2022-08-05T12:31:23.168Z,32.50
2022-08-05T12:34:01.829Z,32.50
2022-08-05T12:36:31.168Z,32.40
2022-08-05T12:38:59.427Z,32.70
2022-08-05T12:41:35.590Z,32.40
2022-08-05T12:44:32.697Z,32.40
2022-08-05T12:47:02.629Z,32.50
2022-08-05T12:50:03.935Z,32.40
2022-08-05T12:52:32.316Z,32.40
2022-08-05T12:55:22.075Z,32.40
2022-08-05T12:58:49.312Z,32.30
2022-08-05T13:02:00.417Z,32.30
2022-08-05T13:03:34.210Z,32.30
2022-08-05T13:06:13.579Z,32.30
2022-08-05T13:08:41.052Z,32.30
2022-08-05T13:12:01.086Z,32.30
2022-08-05T13:14:24.902Z,32.30
2022-08-05T13:17:09.127Z,32.20
2022-08-05T13:19:52.073Z,32.20
2022-08-05T13:22:27.728Z,32.20
2022-08-05T13:25:06.057Z,32.20
2022-08-05T13:27:51.761Z,32.10
2022-08-05T13:30:32.828Z,32.10
2022-08-05T13:33:02.848Z,32.00
2022-08-05T13:35:43.352Z,32.10
2022-08-05T13:38:20.457Z,32.30
2022-08-05T13:41:00.002Z,32.10
2022-08-05T13:43:44.433Z,32.10
2022-08-05T13:46:16.308Z,32.60
2022-08-05T13:48:58.774Z,32.10
2022-08-05T13:51:40.374Z,32.10
2022-08-05T13:54:12.509Z,32.00
2022-08-05T13:56:44.992Z,32.00
2022-08-05T13:59:23.748Z,31.90
2022-08-05T14:01:59.473Z,31.80
2022-08-05T14:04:51.907Z,31.60
2022-08-05T14:07:25.728Z,31.40
2022-08-05T14:10:19.048Z,31.30
2022-08-05T14:12:57.179Z,31.20
2022-08-05T14:16:07.313Z,31.80
2022-08-05T14:18:17.639Z,31.10
2022-08-05T14:20:48.145Z,31.10
2022-08-05T14:23:24.604Z,31.00
2022-08-05T14:25:57.879Z,30.90
2022-08-05T14:28:30.870Z,31.30
2022-08-05T14:30:59.371Z,30.80
2022-08-05T14:33:56.302Z,30.80
2022-08-05T14:36:21.507Z,30.80
2022-08-05T14:38:50.206Z,30.80
2022-08-05T14:41:18.647Z,30.80
2022-08-05T14:43:59.015Z,30.70
2022-08-05T14:46:30.732Z,30.70
2022-08-05T14:49:06.500Z,30.70
2022-08-05T14:51:42.464Z,30.60
2022-08-05T14:54:30.105Z,30.50
2022-08-05T14:56:59.885Z,30.40
2022-08-05T14:59:29.599Z,30.30
2022-08-05T15:02:15.182Z,30.20
2022-08-05T15:05:15.925Z,30.20
2022-08-05T15:08:08.738Z,30.20
2022-08-05T15:10:31.339Z,30.20
2022-08-05T15:13:04.249Z,30.20
2022-08-05T15:15:55.522Z,30.10
2022-08-05T15:18:24.954Z,30.10
2022-08-05T15:20:52.327Z,30.00
2022-08-05T15:23:20.422Z,30.00
2022-08-05T15:25:53.357Z,30.00
2022-08-05T15:28:27.763Z,30.30
2022-08-05T15:30:55.702Z,29.90
2022-08-05T15:34:05.867Z,29.90
2022-08-05T15:36:16.891Z,29.90
2022-08-05T15:38:46.482Z,29.90
2022-08-05T15:41:21.047Z,29.80
2022-08-05T15:43:54.886Z,29.70
2022-08-05T15:46:24.076Z,29.60
2022-08-05T15:48:58.006Z,29.60
2022-08-05T15:52:12.517Z,29.40
2022-08-05T15:54:20.030Z,29.30
2022-08-05T15:57:02.396Z,29.20
2022-08-05T15:59:29.919Z,29.10
2022-08-05T16:01:57.342Z,29.70
2022-08-05T16:04:28.384Z,28.90
2022-08-05T16:06:55.980Z,29.30
2022-08-05T16:09:24.858Z,28.70
2022-08-05T16:11:54.213Z,28.60
2022-08-05T16:14:22.818Z,28.50
2022-08-05T16:16:50.332Z,28.90
2022-08-05T16:19:19.019Z,28.20
2022-08-05T16:22:06.662Z,28.50
2022-08-05T16:24:41.366Z,27.60
2022-08-05T16:27:18.697Z,27.70
2022-08-05T16:29:50.143Z,27.10
2022-08-05T16:32:23.460Z,26.90
2022-08-05T16:34:57.449Z,26.80
2022-08-05T16:38:15.172Z,26.60
2022-08-05T16:40:24.791Z,26.50
2022-08-05T16:42:54.032Z,26.90
2022-08-05T16:46:06.537Z,27.00
2022-08-05T16:48:10.396Z,26.40
2022-08-05T16:50:38.231Z,26.40
2022-08-05T16:53:12.422Z,26.40
2022-08-05T16:55:50.463Z,26.40
2022-08-05T16:58:19.991Z,27.10
2022-08-05T17:00:49.683Z,26.60
2022-08-05T17:03:20.039Z,26.40
2022-08-05T17:05:53.902Z,26.50
2022-08-05T17:08:33.620Z,26.50
2022-08-05T17:11:04.196Z,26.50
2022-08-05T17:13:37.785Z,26.40
2022-08-05T17:16:30.310Z,26.40
2022-08-05T17:18:56.473Z,26.50
2022-08-05T17:21:23.970Z,26.40
2022-08-05T17:24:04.548Z,26.40
2022-08-05T17:26:36.852Z,27.00
2022-08-05T17:29:07.507Z,27.10
2022-08-05T17:31:56.548Z,26.50
2022-08-05T17:34:30.028Z,26.50
2022-08-05T17:37:00.427Z,26.60
2022-08-05T17:39:33.208Z,26.60
2022-08-05T17:42:17.920Z,26.70
2022-08-05T17:44:50.937Z,26.70
2022-08-05T17:47:33.513Z,27.30
2022-08-05T17:50:10.279Z,26.80
2022-08-05T17:52:52.733Z,27.30
2022-08-05T17:55:21.393Z,27.00
2022-08-05T17:57:50.343Z,27.20
2022-08-05T18:00:18.692Z,26.80
2022-08-05T18:02:47.232Z,27.20
2022-08-05T18:05:17.470Z,26.70
2022-08-05T18:07:45.071Z,27.10
2022-08-05T18:10:21.331Z,26.60
2022-08-05T18:12:49.663Z,26.50
2022-08-05T18:15:17.383Z,26.50
2022-08-05T18:18:00.393Z,26.90
2022-08-05T18:20:32.423Z,26.50
2022-08-05T18:23:09.546Z,26.30
2022-08-05T18:25:44.757Z,26.30
2022-08-05T18:28:17.483Z,26.30
2022-08-05T18:30:50.940Z,26.90
2022-08-05T18:33:22.697Z,26.20
2022-08-05T18:36:03.892Z,26.30
2022-08-05T18:38:36.172Z,26.20
2022-08-05T18:41:56.410Z,26.20
2022-08-05T18:43:52.880Z,26.10
2022-08-05T18:46:20.763Z,26.10
2022-08-05T18:48:51.586Z,26.00
2022-08-05T18:52:04.016Z,25.90
2022-08-05T18:54:31.462Z,26.30
2022-08-05T18:57:00.935Z,25.90
2022-08-05T18:59:43.058Z,25.90
2022-08-05T19:02:27.783Z,25.80
2022-08-05T19:05:02.272Z,25.80
2022-08-05T19:07:49.769Z,26.30
2022-08-05T19:10:28.079Z,25.80
2022-08-05T19:12:59.303Z,25.80
2022-08-05T19:16:00.235Z,25.70
2022-08-05T19:18:22.432Z,25.70
2022-08-05T19:20:54.070Z,25.70
2022-08-05T19:24:06.597Z,26.00
2022-08-05T19:26:11.187Z,25.60
2022-08-05T19:28:43.650Z,25.60
2022-08-05T19:31:13.314Z,25.50
2022-08-05T19:33:48.522Z,25.70
2022-08-05T19:36:26.979Z,25.40
2022-08-05T19:38:58.917Z,25.40
2022-08-05T19:42:05.340Z,25.40
2022-08-05T19:44:18.709Z,25.40
2022-08-05T19:46:47.094Z,25.30
2022-08-05T19:49:16.929Z,25.50
2022-08-05T19:52:09.040Z,25.30
2022-08-05T19:54:34.197Z,25.20
2022-08-05T19:57:09.681Z,25.70
2022-08-05T19:59:56.073Z,25.10
2022-08-05T20:02:28.164Z,25.10
2022-08-05T20:04:58.715Z,25.60
2022-08-05T20:07:45.920Z,25.00
2022-08-05T20:10:17.151Z,24.90
2022-08-05T20:12:48.016Z,24.90
2022-08-05T20:15:23.465Z,25.00
2022-08-05T20:18:10.222Z,25.20
2022-08-05T20:20:55.247Z,24.90
2022-08-05T20:23:40.686Z,24.90
2022-08-05T20:26:15.901Z,24.80
2022-08-05T20:28:50.200Z,24.70
2022-08-05T20:31:22.942Z,24.70
2022-08-05T20:33:55.958Z,24.60
2022-08-05T20:36:24.614Z,24.60
2022-08-05T20:38:57.752Z,24.60
2022-08-05T20:41:44.515Z,24.50
2022-08-05T20:44:18.720Z,25.00
2022-08-05T20:46:57.847Z,24.90
2022-08-05T20:49:25.860Z,24.50
2022-08-05T20:51:54.663Z,24.50
2022-08-05T20:54:42.930Z,24.90
2022-08-05T20:57:15.233Z,24.40
2022-08-05T21:00:20.915Z,24.40
2022-08-05T21:02:56.931Z,24.30
2022-08-05T21:05:26.046Z,24.40
2022-08-05T21:08:06.145Z,24.30
2022-08-05T21:10:33.781Z,24.60
2022-08-05T21:13:08.917Z,24.30
2022-08-05T21:15:44.426Z,24.30
2022-08-05T21:18:18.493Z,24.70
2022-08-05T21:20:45.838Z,24.60
2022-08-05T21:23:14.139Z,24.50
2022-08-05T21:25:44.571Z,24.60
2022-08-05T21:28:12.096Z,24.20
2022-08-05T21:30:39.996Z,24.20
2022-08-05T21:33:21.987Z,24.20
2022-08-05T21:35:58.794Z,24.60
2022-08-05T21:38:27.956Z,24.50
2022-08-05T21:40:55.500Z,24.10
2022-08-05T21:43:24.567Z,24.70
2022-08-05T21:45:57.390Z,24.10
2022-08-05T21:48:25.323Z,24.30
2022-08-05T21:50:54.244Z,24.50
2022-08-05T21:53:27.090Z,24.00
2022-08-05T21:56:04.732Z,24.10
2022-08-05T21:58:42.278Z,24.00
2022-08-05T22:01:24.171Z,24.30
2022-08-05T22:03:53.578Z,23.80
2022-08-05T22:06:35.139Z,23.80
2022-08-05T22:09:13.221Z,23.70
2022-08-05T22:11:41.423Z,23.70
2022-08-05T22:14:35.515Z,23.90
2022-08-05T22:17:04.000Z,23.50
2022-08-05T22:20:14.830Z,23.50
2022-08-05T22:23:02.378Z,23.40
2022-08-05T22:26:10.031Z,23.40
2022-08-05T22:28:38.892Z,23.40
2022-08-05T22:31:06.346Z,23.30
2022-08-05T22:33:58.465Z,23.30
2022-08-05T22:36:23.988Z,23.30
2022-08-05T22:38:53.681Z,23.80
2022-08-05T22:42:04.334Z,23.80
2022-08-05T22:44:09.232Z,23.30
2022-08-05T22:46:40.275Z,23.10
2022-08-05T22:49:23.058Z,23.10
2022-08-05T22:52:06.102Z,23.60
2022-08-05T22:54:36.497Z,23.10
2022-08-05T22:57:05.799Z,23.00
2022-08-05T22:59:43.895Z,23.60
2022-08-05T23:02:18.217Z,22.90
2022-08-05T23:04:52.097Z,22.90
2022-08-05T23:07:22.082Z,23.20
2022-08-05T23:09:57.825Z,22.80
2022-08-05T23:12:32.951Z,23.40
2022-08-05T23:15:03.387Z,22.80
2022-08-05T23:17:34.937Z,22.80
2022-08-05T23:20:17.669Z,22.80
2022-08-05T23:22:47.249Z,22.80
2022-08-05T23:25:51.551Z,23.20
2022-08-05T23:28:06.976Z,22.80
2022-08-05T23:30:40.672Z,23.20
2022-08-05T23:33:16.360Z,22.70
2022-08-05T23:35:56.263Z,22.70
2022-08-05T23:38:26.674Z,22.60
2022-08-05T23:40:54.391Z,23.00
2022-08-05T23:43:24.797Z,22.50
2022-08-05T23:46:21.181Z,23.00
2022-08-05T23:49:00.068Z,22.40
2022-08-05T23:51:52.597Z,23.00
2022-08-05T23:54:25.969Z,22.30
2022-08-05T23:57:03.806Z,22.30
